Aérodrome :
LOGIN :

S'inscrire | Disclaimer

   EN    FR    IT 

 










Légende :    VFR   VFR Marginal   IFR   IFR Intensif   IFR Très Intensif
Visi : 
Plafond : 
>= 8 km
>= 3000ft
5 à 8 km
1000 à 3000 ft
1500m à 5 km
500 à 1000 ft
800 à 1500m
200 à 500 ft
< 800m
< 200 ft
Symboles :   Orages  Brouillard  Fortes neiges  Fortes précipitations  Vent > 20 kt
SIGMETs :   Divers  Orages  Givrage  Turbulence  Onde Orograph.  Cendres Volcan.






- Altitude de l'aérodrome : 885 ft
- Code IATA : BAS


LFSB - Bale-Mulhouse

DERNIER METAR :
  • 050630Z 35009KT 5000 -RA BKN007 SCT020 BKN030 05/04 Q1020 TEMPO 4000 RADZ BKN006

METARs EXPIRÉS :
  • 050600Z 34006KT 8000 SCT008 BKN020 06/04 Q1020 TEMPO -RADZ BKN008
  • 050530Z AUTO 35010KT 9999 FEW009 OVC026 06/05 Q1019 TEMPO 4000 -RA BECMG BKN008
  • 050500Z AUTO 33005KT 6000 OVC023 07/06 Q1019 TEMPO 4000 -RA BECMG BKN008
  • 050430Z AUTO 31005KT 6000 FEW013 SCT020 BKN026 07/06 Q1019 TEMPO 4000 -RA BECMG BKN008
  • 050400Z AUTO 30008KT 5000 BR BKN014 OVC036 07/06 Q1019 BECMG BKN008
  • 050330Z AUTO 34003KT 5000 BR FEW012 SCT038 BKN052 06/05 Q1019 BECMG BKN008

TAF TAF LFSB
Valide du 05 à 06h jusqu'au 06 à 06h UTC


050500Z 0506/0606 35008KT 9999 FEW010 BKN025
PROB40
TEMPO 0506/0509 4000 -RA BR BKN008
TEMPO 0515/0521 -RA
TEMPO 0518/0606 3000 BR BKN004
PROB30
TEMPO 0522/0603 1000 BCFG
BECMG 0603/0606 FEW003
Météo : +33 3 89 90 31 11



MET'MAP, la Météo Aéronautique d'un coup d'oeil ! - Copyright ORBIFLY Décembre 2007 - Disclaimer

ORBIFLY MET'MAP TEAM :

Programmation & Développement : Alexandra Zaïnal
Sur une idée originale de : Baudouin d'Aumeries
Assistance à la programmation : Marc-Olivier Méhu
Soutien technique & logistique : Manuel Goepfert

Contact : metmap@orbifly.com




SOURCES & CREDITS :

   NOAA